createdAt,value
2022-10-01T00:00:56.248Z,6.22
2022-10-01T00:03:25.194Z,5.63
2022-10-01T00:05:58.850Z,4.95
2022-10-01T00:10:51.603Z,4.82
2022-10-01T00:13:19.404Z,5.80
2022-10-01T00:15:46.142Z,4.22
2022-10-01T00:18:12.622Z,2.97
2022-10-01T00:20:39.468Z,4.20
2022-10-01T00:23:05.983Z,6.22
2022-10-01T00:25:32.431Z,7.30
2022-10-01T00:27:58.936Z,7.68
2022-10-01T00:30:26.795Z,4.18
2022-10-01T00:32:53.445Z,6.45
2022-10-01T00:35:19.926Z,7.85
2022-10-01T00:37:47.270Z,6.00
2022-10-01T00:40:13.750Z,6.05
2022-10-01T00:42:40.137Z,6.32
2022-10-01T00:45:07.263Z,4.90
2022-10-01T00:47:38.438Z,5.72
2022-10-01T00:50:09.665Z,4.63
2022-10-01T00:52:40.539Z,5.20
2022-10-01T00:55:10.462Z,4.38
2022-10-01T00:57:37.295Z,4.60
2022-10-01T01:00:06.525Z,4.50
2022-10-01T01:02:33.189Z,4.72
2022-10-01T01:05:01.258Z,8.98
2022-10-01T01:07:29.210Z,6.68
2022-10-01T01:09:55.946Z,6.35
2022-10-01T01:12:44.589Z,4.53
2022-10-01T01:15:17.260Z,4.93
2022-10-01T01:17:52.744Z,6.57
2022-10-01T01:20:40.130Z,5.63
2022-10-01T01:23:25.674Z,5.65
2022-10-01T01:26:02.244Z,7.65
2022-10-01T01:28:32.466Z,7.35
2022-10-01T01:31:04.581Z,5.20
2022-10-01T01:33:34.756Z,6.80
2022-10-01T01:36:05.871Z,6.65
2022-10-01T01:38:36.321Z,3.67
2022-10-01T01:41:04.949Z,5.28
2022-10-01T01:43:36.856Z,4.53
2022-10-01T01:46:05.974Z,3.50
2022-10-01T01:48:34.917Z,5.18
2022-10-01T01:51:08.527Z,3.75
2022-10-01T01:53:35.461Z,5.00
2022-10-01T01:56:02.083Z,4.82
2022-10-01T01:58:29.029Z,4.47
2022-10-01T02:00:56.766Z,3.92
2022-10-01T02:03:26.572Z,7.57
2022-10-01T02:06:03.548Z,4.28
2022-10-01T02:08:38.897Z,4.63
2022-10-01T02:11:25.550Z,3.15
2022-10-01T02:14:03.660Z,3.50
2022-10-01T02:16:41.517Z,3.15
2022-10-01T02:19:17.892Z,3.95
2022-10-01T02:21:53.022Z,5.32
2022-10-01T02:24:27.493Z,4.45
2022-10-01T02:26:55.732Z,4.93
2022-10-01T02:29:23.706Z,5.35
2022-10-01T02:31:54.075Z,4.90
2022-10-01T02:34:24.641Z,4.35
2022-10-01T02:36:52.557Z,4.30
2022-10-01T02:39:22.022Z,4.10
2022-10-01T02:41:51.453Z,5.35
2022-10-01T02:44:23.684Z,4.72
2022-10-01T02:46:57.259Z,3.40
2022-10-01T02:52:07.978Z,7.55
2022-10-01T02:54:38.272Z,4.30
2022-10-01T02:57:04.692Z,4.30
2022-10-01T02:59:31.175Z,4.10
2022-10-01T03:01:59.112Z,5.47
2022-10-01T03:04:25.706Z,6.65
2022-10-01T03:06:52.154Z,5.15
2022-10-01T03:09:18.564Z,5.60
2022-10-01T03:11:44.963Z,3.75
2022-10-01T03:14:11.408Z,3.80
2022-10-01T03:16:37.977Z,6.78
2022-10-01T03:19:05.753Z,5.15
2022-10-01T03:21:32.473Z,4.93
2022-10-01T03:23:59.089Z,5.45
2022-10-01T03:26:25.503Z,4.30
2022-10-01T03:28:52.028Z,4.80
2022-10-01T03:31:18.497Z,11.45
2022-10-01T03:33:45.042Z,6.57
2022-10-01T03:36:12.842Z,4.35
2022-10-01T03:38:39.320Z,7.53
2022-10-01T03:41:06.355Z,5.93
2022-10-01T03:43:32.781Z,5.13
2022-10-01T03:45:59.286Z,4.68
2022-10-01T03:48:25.791Z,6.72
2022-10-01T03:50:53.708Z,3.20
2022-10-01T03:53:21.873Z,4.40
2022-10-01T03:55:48.296Z,3.78
2022-10-01T03:58:14.802Z,6.60
2022-10-01T04:00:41.215Z,5.63
2022-10-01T04:03:07.729Z,3.97
2022-10-01T04:05:34.335Z,3.28
2022-10-01T04:08:01.173Z,4.05
2022-10-01T04:10:29.067Z,4.45
2022-10-01T04:12:55.464Z,4.32
2022-10-01T04:15:22.030Z,6.05
2022-10-01T04:17:48.640Z,4.78
2022-10-01T04:20:15.287Z,4.65
2022-10-01T04:22:42.511Z,3.80
2022-10-01T04:25:10.761Z,7.07
2022-10-01T04:27:38.634Z,4.50
2022-10-01T04:30:07.009Z,4.47
2022-10-01T04:32:33.532Z,4.07
2022-10-01T04:35:00.033Z,3.42
2022-10-01T04:37:26.488Z,5.05
2022-10-01T04:39:53.007Z,8.27
2022-10-01T04:42:19.760Z,4.93
2022-10-01T04:44:47.988Z,4.40
2022-10-01T04:47:14.673Z,4.47
2022-10-01T04:49:41.076Z,5.50
2022-10-01T04:52:07.687Z,6.70
2022-10-01T04:54:34.074Z,3.70
2022-10-01T04:57:00.491Z,4.93
2022-10-01T04:59:26.906Z,5.50
2022-10-01T05:01:57.185Z,7.07
2022-10-01T05:04:23.798Z,5.93
2022-10-01T05:06:50.275Z,4.45
2022-10-01T05:09:16.695Z,15.10
2022-10-01T05:11:43.143Z,5.80
2022-10-01T05:14:11.141Z,7.10
2022-10-01T05:16:37.683Z,4.40
2022-10-01T05:19:05.632Z,5.32
2022-10-01T05:21:32.431Z,5.28
2022-10-01T05:23:59.275Z,5.60
2022-10-01T05:26:25.691Z,7.78
2022-10-01T05:28:52.134Z,10.40
2022-10-01T05:31:18.551Z,5.35
2022-10-01T05:33:45.036Z,6.65
2022-10-01T05:36:12.828Z,5.38
2022-10-01T05:38:39.322Z,5.50
2022-10-01T05:41:06.217Z,4.82
2022-10-01T05:43:32.658Z,5.22
2022-10-01T05:46:00.664Z,6.85
2022-10-01T05:48:27.167Z,7.60
2022-10-01T05:50:53.772Z,5.88
2022-10-01T05:53:21.550Z,5.70
2022-10-01T05:55:47.990Z,4.93
2022-10-01T05:58:14.469Z,9.32
2022-10-01T06:00:42.255Z,8.32
2022-10-01T06:03:11.125Z,5.22
2022-10-01T06:05:37.783Z,9.25
2022-10-01T06:08:05.769Z,6.65
2022-10-01T06:10:33.615Z,6.07
2022-10-01T06:13:00.647Z,5.53
2022-10-01T06:15:27.566Z,5.70
2022-10-01T06:17:54.003Z,4.75
2022-10-01T06:20:20.522Z,5.72
2022-10-01T06:22:54.306Z,5.85
2022-10-01T06:27:52.575Z,6.88
2022-10-01T06:30:19.094Z,6.30
2022-10-01T06:32:45.513Z,5.88
2022-10-01T06:35:11.929Z,4.90
2022-10-01T06:37:38.551Z,5.70
2022-10-01T06:40:06.292Z,4.90
2022-10-01T06:42:33.088Z,4.72
2022-10-01T06:45:00.796Z,5.20
2022-10-01T06:47:27.239Z,4.32
2022-10-01T06:49:53.784Z,4.20
2022-10-01T06:52:20.216Z,5.63
2022-10-01T06:54:46.627Z,5.60
2022-10-01T06:57:13.105Z,3.72
2022-10-01T06:59:39.535Z,4.20
2022-10-01T07:02:11.070Z,4.00
2022-10-01T07:04:37.720Z,3.60
2022-10-01T07:07:04.138Z,5.18
2022-10-01T07:09:30.534Z,3.60
2022-10-01T07:11:56.963Z,4.47
2022-10-01T07:14:23.512Z,4.80
2022-10-01T07:16:49.949Z,5.30
2022-10-01T07:19:17.951Z,3.97
2022-10-01T07:21:47.384Z,3.22
2022-10-01T07:24:13.819Z,3.97
2022-10-01T07:26:40.267Z,4.40
2022-10-01T07:29:06.673Z,3.92
2022-10-01T07:31:33.407Z,4.78
2022-10-01T07:34:00.069Z,3.65
2022-10-01T07:36:27.880Z,4.05
2022-10-01T07:38:54.359Z,3.80
2022-10-01T07:41:20.756Z,3.80
2022-10-01T07:43:47.225Z,3.78
2022-10-01T07:46:13.699Z,3.72
2022-10-01T07:48:40.221Z,5.85
2022-10-01T07:51:06.898Z,5.85
2022-10-01T07:53:34.639Z,4.60
2022-10-01T07:56:01.500Z,3.35
2022-10-01T07:58:27.961Z,3.83
2022-10-01T08:00:54.386Z,4.43
2022-10-01T08:03:21.017Z,4.18
2022-10-01T08:05:47.406Z,3.38
2022-10-01T08:08:13.783Z,3.60
2022-10-01T08:10:41.581Z,3.05
2022-10-01T08:13:11.192Z,7.28
2022-10-01T08:15:37.611Z,4.53
2022-10-01T08:18:04.839Z,3.20
2022-10-01T08:20:45.628Z,3.80
2022-10-01T08:23:14.378Z,3.05
2022-10-01T08:25:43.255Z,3.95
2022-10-01T08:28:11.170Z,2.47
2022-10-01T08:30:39.744Z,2.78
2022-10-01T08:33:07.246Z,3.03
2022-10-01T08:35:33.732Z,3.25
2022-10-01T08:38:04.515Z,3.13
2022-10-01T08:40:33.197Z,3.05
2022-10-01T08:43:04.057Z,2.17
2022-10-01T08:45:37.632Z,2.50
2022-10-01T08:50:40.752Z,2.60
2022-10-01T08:53:14.112Z,2.55
2022-10-01T08:55:41.165Z,2.42
2022-10-01T08:58:14.624Z,2.70
2022-10-01T09:00:45.127Z,2.00
2022-10-01T09:03:13.608Z,3.53
2022-10-01T09:05:55.511Z,3.03
2022-10-01T09:08:32.579Z,3.55
2022-10-01T09:11:04.438Z,4.22
2022-10-01T09:13:53.757Z,2.72
2022-10-01T09:16:25.232Z,2.00
2022-10-01T09:19:03.796Z,2.00
2022-10-01T09:21:46.469Z,3.20
2022-10-01T09:24:14.804Z,2.33
2022-10-01T09:26:45.767Z,2.28
2022-10-01T09:29:17.556Z,3.20
2022-10-01T09:31:48.724Z,1.92
2022-10-01T09:34:16.568Z,3.03
2022-10-01T09:36:56.289Z,1.88
2022-10-01T09:39:29.656Z,2.40
2022-10-01T09:41:56.110Z,2.17
2022-10-01T09:44:27.725Z,3.65
2022-10-01T09:46:54.834Z,2.63
2022-10-01T09:49:29.281Z,1.70
2022-10-01T09:52:01.158Z,2.45
2022-10-01T09:54:32.404Z,1.67
2022-10-01T09:57:05.817Z,3.08
2022-10-01T09:59:38.425Z,3.22
2022-10-01T10:02:15.014Z,4.47
2022-10-01T10:04:41.581Z,2.63
2022-10-01T10:07:08.183Z,1.98
2022-10-01T10:09:35.956Z,2.78
2022-10-01T10:12:03.020Z,5.22
2022-10-01T10:14:31.917Z,6.78
2022-10-01T10:17:05.227Z,5.28
2022-10-01T10:19:32.361Z,4.63
2022-10-01T10:22:11.424Z,4.63
2022-10-01T10:24:38.144Z,4.53
2022-10-01T10:27:18.013Z,3.55
2022-10-01T10:29:44.438Z,2.50
2022-10-01T10:32:19.054Z,2.55
2022-10-01T10:34:45.976Z,2.10
2022-10-01T10:37:15.572Z,3.53
2022-10-01T10:39:46.318Z,3.33
2022-10-01T10:42:13.828Z,3.55
2022-10-01T10:44:43.686Z,4.05
2022-10-01T10:47:13.532Z,4.47
2022-10-01T10:49:44.803Z,3.00
2022-10-01T10:52:20.047Z,4.60
2022-10-01T10:54:48.211Z,3.30
2022-10-01T10:57:19.089Z,3.55
2022-10-01T10:59:55.527Z,2.88
2022-10-01T11:02:24.712Z,4.00
2022-10-01T11:04:53.239Z,3.40
2022-10-01T11:07:21.433Z,3.25
2022-10-01T11:10:09.010Z,4.45
2022-10-01T11:12:55.531Z,3.28
2022-10-01T11:15:38.570Z,3.60
2022-10-01T11:18:22.412Z,3.90
2022-10-01T11:23:40.496Z,2.97
2022-10-01T11:26:15.803Z,4.07
2022-10-01T11:28:55.703Z,3.00
2022-10-01T11:31:31.543Z,5.60
2022-10-01T11:34:16.168Z,4.20
2022-10-01T11:36:55.487Z,4.82
2022-10-01T11:39:25.250Z,6.05
2022-10-01T11:41:56.067Z,6.10
2022-10-01T11:44:29.266Z,4.45
2022-10-01T11:47:00.665Z,4.80
2022-10-01T11:49:45.711Z,4.30
2022-10-01T11:52:20.369Z,4.25
2022-10-01T11:54:58.519Z,4.03
2022-10-01T11:57:26.877Z,7.20
2022-10-01T11:59:58.963Z,5.20
2022-10-01T12:02:31.322Z,3.67
2022-10-01T12:05:03.940Z,4.65
2022-10-01T12:07:37.280Z,5.60
2022-10-01T12:10:17.854Z,8.73
2022-10-01T12:12:51.534Z,4.00
2022-10-01T12:17:51.307Z,4.65
2022-10-01T12:20:24.758Z,5.95
2022-10-01T12:22:53.637Z,8.90
2022-10-01T12:25:26.239Z,6.85
2022-10-01T12:28:00.098Z,5.25
2022-10-01T12:30:31.374Z,4.47
2022-10-01T12:33:09.275Z,5.35
2022-10-01T12:35:54.522Z,5.55
2022-10-01T12:38:32.445Z,9.68
2022-10-01T12:41:09.296Z,5.30
2022-10-01T12:44:00.169Z,6.28
2022-10-01T12:46:34.976Z,6.35
2022-10-01T12:49:14.144Z,6.32
2022-10-01T12:51:44.480Z,4.93
2022-10-01T12:54:29.957Z,6.10
2022-10-01T12:57:02.880Z,3.70
2022-10-01T12:59:40.406Z,6.85
2022-10-01T13:02:23.068Z,5.10
2022-10-01T13:05:12.740Z,7.35
2022-10-01T13:07:51.236Z,6.35
2022-10-01T13:10:34.791Z,5.38
2022-10-01T13:13:05.430Z,5.93
2022-10-01T13:15:35.636Z,5.00
2022-10-01T13:18:13.032Z,7.95
2022-10-01T13:20:46.949Z,8.60
2022-10-01T13:23:23.805Z,6.05
2022-10-01T13:26:01.593Z,12.48
2022-10-01T13:28:49.544Z,4.55
2022-10-01T13:31:17.340Z,4.70
2022-10-01T13:33:53.771Z,3.47
2022-10-01T13:36:29.143Z,4.68
2022-10-01T13:38:57.001Z,5.90
2022-10-01T13:41:27.640Z,6.40
2022-10-01T13:43:57.104Z,4.45
2022-10-01T13:46:26.657Z,6.65
2022-10-01T13:48:53.566Z,6.80
2022-10-01T13:51:20.126Z,6.55
2022-10-01T13:53:49.567Z,7.05
2022-10-01T13:56:28.982Z,4.35
2022-10-01T13:58:55.827Z,4.95
2022-10-01T14:01:29.104Z,6.60
2022-10-01T14:04:01.982Z,4.57
2022-10-01T14:06:30.705Z,14.35
2022-10-01T14:09:05.267Z,4.90
2022-10-01T14:11:35.844Z,3.17
2022-10-01T14:14:09.801Z,3.80
2022-10-01T14:16:40.181Z,2.75
2022-10-01T14:19:08.053Z,0.85
2022-10-01T14:21:55.226Z,1.77
2022-10-01T14:24:32.607Z,3.22
2022-10-01T14:27:10.719Z,1.90
2022-10-01T14:29:49.320Z,1.83
2022-10-01T14:32:26.782Z,1.83
2022-10-01T14:35:11.343Z,2.90
2022-10-01T14:37:38.694Z,2.35
2022-10-01T14:40:15.300Z,3.40
2022-10-01T14:42:43.135Z,4.85
2022-10-01T14:45:17.603Z,2.85
2022-10-01T14:47:44.054Z,2.67
2022-10-01T14:50:12.260Z,3.92
2022-10-01T14:52:44.156Z,4.22
2022-10-01T14:55:13.980Z,3.60
2022-10-01T14:57:45.151Z,2.53
2022-10-01T15:00:16.367Z,3.72
2022-10-01T15:02:47.564Z,1.23
2022-10-01T15:05:23.471Z,2.47
2022-10-01T15:07:50.424Z,2.58
2022-10-01T15:10:18.890Z,4.28
2022-10-01T15:12:49.420Z,7.32
2022-10-01T15:15:19.134Z,2.72
2022-10-01T15:17:46.438Z,3.78
2022-10-01T15:20:13.373Z,5.40
2022-10-01T15:22:40.455Z,4.00
2022-10-01T15:25:07.508Z,4.68
2022-10-01T15:27:34.067Z,5.57
2022-10-01T15:30:02.036Z,3.65
2022-10-01T15:32:28.864Z,3.20
2022-10-01T15:34:57.689Z,6.43
2022-10-01T15:37:29.572Z,2.47
2022-10-01T15:39:56.936Z,4.15
2022-10-01T15:42:25.873Z,5.78
2022-10-01T15:45:20.531Z,4.45
2022-10-01T15:47:48.898Z,5.63
2022-10-01T15:50:20.948Z,3.85
2022-10-01T15:52:53.152Z,5.50
2022-10-01T15:55:23.599Z,5.65
2022-10-01T15:57:55.483Z,4.25
2022-10-01T16:00:25.707Z,6.90
2022-10-01T16:02:53.400Z,7.93
2022-10-01T16:05:22.762Z,6.75
2022-10-01T16:07:53.556Z,3.42
2022-10-01T16:10:34.018Z,5.95
2022-10-01T16:13:28.074Z,6.75
2022-10-01T16:16:07.148Z,7.47
2022-10-01T16:18:33.682Z,5.03
2022-10-01T16:21:00.289Z,8.27
2022-10-01T16:23:34.352Z,7.82
2022-10-01T16:26:01.678Z,5.40
2022-10-01T16:28:32.314Z,4.22
2022-10-01T16:30:59.438Z,5.65
2022-10-01T16:33:25.874Z,5.32
2022-10-01T16:36:06.771Z,6.00
2022-10-01T16:38:33.200Z,7.82
2022-10-01T16:40:59.738Z,7.80
2022-10-01T16:43:26.340Z,6.15
2022-10-01T16:45:54.163Z,7.70
2022-10-01T16:48:21.613Z,7.47
2022-10-01T16:50:48.348Z,6.78
2022-10-01T16:53:17.012Z,4.97
2022-10-01T16:55:44.296Z,6.93
2022-10-01T16:58:11.308Z,4.70
2022-10-01T17:00:37.799Z,5.97
2022-10-01T17:03:07.260Z,6.15
2022-10-01T17:05:35.964Z,4.78
2022-10-01T17:08:03.570Z,6.82
2022-10-01T17:10:31.867Z,3.55
2022-10-01T17:12:58.899Z,7.05
2022-10-01T17:15:27.463Z,5.57
2022-10-01T17:17:54.687Z,8.38
2022-10-01T17:20:24.232Z,5.80
2022-10-01T17:22:51.155Z,5.30
2022-10-01T17:25:20.248Z,5.93
2022-10-01T17:27:47.159Z,6.40
2022-10-01T17:30:13.859Z,7.97
2022-10-01T17:32:40.856Z,5.07
2022-10-01T17:35:07.777Z,4.00
2022-10-01T17:37:35.699Z,4.57
2022-10-01T17:40:02.717Z,6.38
2022-10-01T17:42:30.521Z,6.70
2022-10-01T17:44:56.976Z,5.90
2022-10-01T17:47:23.637Z,5.72
2022-10-01T17:49:50.081Z,6.95
2022-10-01T17:52:17.326Z,6.93
2022-10-01T17:54:45.359Z,5.15
2022-10-01T17:57:12.562Z,9.63
2022-10-01T17:59:39.353Z,7.78
2022-10-01T18:02:23.583Z,6.28
2022-10-01T18:04:53.477Z,8.00
2022-10-01T18:07:19.913Z,9.45
2022-10-01T18:09:47.637Z,9.13
2022-10-01T18:12:14.553Z,7.30
2022-10-01T18:14:40.981Z,8.82
2022-10-01T18:17:07.697Z,7.55
2022-10-01T18:22:20.809Z,9.50
2022-10-01T18:24:48.851Z,8.35
2022-10-01T18:27:15.308Z,12.05
2022-10-01T18:29:41.784Z,4.82
2022-10-01T18:32:15.721Z,6.38
2022-10-01T18:34:47.271Z,4.97
2022-10-01T18:37:24.433Z,4.15
2022-10-01T18:39:58.865Z,4.28
2022-10-01T18:42:31.245Z,5.00
2022-10-01T18:45:01.159Z,8.95
2022-10-01T18:47:39.016Z,4.78
2022-10-01T18:50:32.060Z,6.07
2022-10-01T18:53:15.142Z,6.25
2022-10-01T18:56:02.973Z,7.47
2022-10-01T18:58:45.608Z,6.70
2022-10-01T19:01:24.319Z,7.00
2022-10-01T19:04:03.136Z,4.35
2022-10-01T19:06:46.991Z,5.28
2022-10-01T19:09:32.007Z,4.82
2022-10-01T19:12:14.474Z,8.45
2022-10-01T19:14:50.068Z,8.45
2022-10-01T19:17:31.770Z,7.35
2022-10-01T19:20:09.885Z,7.15
2022-10-01T19:22:58.374Z,4.20
2022-10-01T19:25:30.758Z,6.95
2022-10-01T19:28:10.585Z,5.88
2022-10-01T19:30:50.559Z,7.32
2022-10-01T19:33:20.873Z,8.73
2022-10-01T19:35:51.323Z,6.93
2022-10-01T19:38:24.883Z,9.32
2022-10-01T19:40:55.684Z,12.80
2022-10-01T19:43:29.441Z,9.38
2022-10-01T19:46:00.922Z,8.23
2022-10-01T19:48:35.238Z,7.65
2022-10-01T19:51:07.632Z,9.38
2022-10-01T19:53:35.556Z,10.48
2022-10-01T19:56:03.043Z,8.50
2022-10-01T19:58:32.475Z,9.27
2022-10-01T20:01:01.619Z,11.80
2022-10-01T20:03:36.387Z,6.82
2022-10-01T20:06:05.761Z,9.70
2022-10-01T20:08:35.194Z,8.52
2022-10-01T20:11:10.679Z,8.65
2022-10-01T20:13:55.106Z,10.07
2022-10-01T20:16:25.965Z,12.20
2022-10-01T20:19:00.615Z,11.25
2022-10-01T20:21:41.365Z,8.93
2022-10-01T20:24:19.600Z,7.90
2022-10-01T20:26:50.772Z,7.82
2022-10-01T20:29:32.189Z,7.72
2022-10-01T20:32:07.069Z,12.50
2022-10-01T20:34:43.318Z,9.60
2022-10-01T20:37:24.680Z,15.35
2022-10-01T20:39:55.772Z,15.15
2022-10-01T20:42:30.440Z,8.75
2022-10-01T20:44:58.179Z,10.40
2022-10-01T20:47:31.159Z,11.73
2022-10-01T20:50:06.863Z,12.68
2022-10-01T20:52:44.685Z,9.77
2022-10-01T20:55:15.436Z,14.43
2022-10-01T20:57:46.858Z,10.98
2022-10-01T21:00:18.184Z,8.70
2022-10-01T21:02:49.743Z,10.65
2022-10-01T21:05:20.456Z,8.43
2022-10-01T21:07:52.451Z,8.20
2022-10-01T21:10:27.943Z,7.85
2022-10-01T21:13:01.516Z,10.85
2022-10-01T21:15:38.889Z,10.32
2022-10-01T21:18:11.536Z,9.55
2022-10-01T21:20:48.834Z,8.18
2022-10-01T21:23:31.151Z,8.43
2022-10-01T21:26:11.576Z,12.95
2022-10-01T21:28:55.906Z,9.70
2022-10-01T21:31:38.823Z,13.80
2022-10-01T21:34:12.474Z,10.50
2022-10-01T21:36:55.719Z,9.70
2022-10-01T21:39:31.092Z,8.05
2022-10-01T21:42:10.596Z,13.02
2022-10-01T21:45:05.346Z,8.25
2022-10-01T21:47:49.455Z,7.82
2022-10-01T21:50:25.659Z,11.77
2022-10-01T21:53:09.012Z,12.48
2022-10-01T21:55:53.008Z,16.63
2022-10-01T22:00:58.829Z,9.75
2022-10-01T22:03:34.059Z,14.48
2022-10-01T22:06:07.425Z,10.18
2022-10-01T22:08:51.007Z,10.60
2022-10-01T22:11:19.875Z,10.98
2022-10-01T22:13:51.335Z,17.27
2022-10-01T22:16:19.899Z,8.93
2022-10-01T22:18:51.694Z,10.15
2022-10-01T22:21:24.704Z,12.38
2022-10-01T22:23:56.121Z,10.02
2022-10-01T22:26:27.425Z,11.00
2022-10-01T22:28:55.404Z,8.82
2022-10-01T22:31:27.359Z,10.88
2022-10-01T22:34:01.422Z,7.95
2022-10-01T22:36:33.680Z,8.68
2022-10-01T22:39:04.971Z,7.72
2022-10-01T22:41:35.630Z,10.43
2022-10-01T22:44:06.322Z,9.85
2022-10-01T22:47:00.724Z,8.65
2022-10-01T22:49:39.926Z,10.65
2022-10-01T22:52:20.968Z,7.78
2022-10-01T22:54:56.483Z,11.52
2022-10-01T22:57:40.899Z,16.15
2022-10-01T23:00:09.548Z,11.32
2022-10-01T23:02:40.106Z,10.45
2022-10-01T23:05:32.445Z,8.85
2022-10-01T23:08:09.442Z,9.90
2022-10-01T23:10:45.507Z,9.50
2022-10-01T23:13:21.103Z,10.65
2022-10-01T23:15:55.917Z,12.80
2022-10-01T23:18:36.119Z,9.40
2022-10-01T23:21:21.000Z,9.68
2022-10-01T23:23:58.493Z,9.90
2022-10-01T23:26:35.141Z,10.60
2022-10-01T23:29:17.058Z,8.32
2022-10-01T23:31:53.880Z,8.00
2022-10-01T23:34:29.127Z,8.73
2022-10-01T23:37:13.005Z,8.88
2022-10-01T23:39:52.002Z,8.98
2022-10-01T23:42:33.495Z,11.65
2022-10-01T23:45:12.607Z,9.07
2022-10-01T23:47:45.438Z,10.52
2022-10-01T23:50:21.368Z,17.70
2022-10-01T23:52:57.334Z,11.02
2022-10-01T23:55:32.465Z,11.77
2022-10-01T23:58:03.402Z,9.57
